Clarksburg, WV (26301)

10:29 PM EDT on March 26, 2017 (GMT -0400)
Clarksburg - Downtown | | Change Station

Elev 1011 ft 39.28 °N, 80.33 °W | Updated 1 minute ago

Rain
Rain
57.6 °F
Feels Like 57.6 °F
N
0.0
Wind Variable Wind from SW
Gusts 0.7 mph

Today
High -- | Low -- °F
--% Chance of Precip.
Yesterday
High -- | Low -- °F
Precip. -- in
Pressure 30.01 in
Visibility 7.0 miles
Clouds Few 4100 ft
Mostly Cloudy 5000 ft
Overcast 8000 ft
Dew Point 56 °F
Humidity 96%
Rainfall 0.50 in
Snow Depth Not available.
7:14 AM 7:39 PM
Waning Crescent, 1% visible
METAR KCKB 270153Z 10006KT 7SM -RA FEW041 BKN050 OVC080 13/12 A3004 RMK AO2 SLP162 P0009 T01330122
Pressure 30.01 in
Visibility 7.0 miles
Clouds Few 4100 ft
Mostly Cloudy 5000 ft
Overcast 8000 ft
Dew Point 56 °F
Humidity 96%
Rainfall 0.50 in
Snow Depth Not available.
7:14 AM 7:39 PM
Waning Crescent, 1% visible
METAR KCKB 270153Z 10006KT 7SM -RA FEW041 BKN050 OVC080 13/12 A3004 RMK AO2 SLP162 P0009 T01330122

Get Severe Weather Alerts

Thanks for signing up!

Be on the lookout for a verification email in your inbox.

You'll start receiving the daily forecast at 8 AM.

×

10-Day Weather Forecast

Almanac

Astronomy

Mar. 26, 2017 Rise Set
Actual Time
Civil Twilight
Nautical Twilight
Astronomical Twilight
Moon
Length of Visible Light
Length of Day
Tomorrow will be .
, % of the Moon is Illuminated

Today's Extremes

State Highs State Lows

Community

WunderPhotos

Upload Photos

1,962,540 photos uploaded!

WunderBlog® & News

Nearby

Air Quality

  Air Quality AQ Index Pollutant
Not available.

Snow Depth

Station Depth Elevation

Earthquake Activity

City Distance Mag. Time & Date
Minimum magnitude displayed is 2.5.

Earthquake Activity

City Distance Mag. Time & Date
Minimum magnitude displayed is 2.5.

Coastal Water Temperatures

Place Temperature

Stations

Nearby Weather Stations

Station Location Temp. Windchill Dew Point Humidity Wind Precip. Elev Updated Type
                   

Watches & Warnings

There are currently no watches in effect.